Time;durP1;ratioP1;P1;durP2;ratioP2;P2;SDS_P1;SDS_P2;PMS_P1;PMS_P2;Temp;Humidity;BMP_temperature;BMP_pressure;BME280_temperature;BME280_humidity;BME280_pressure;Samples;Min_cycle;Max_cycle;Signal;HPM_P1;HPM_P2
2022/12/20 00:01:36;;;;;;;;;10.75;10.75;;;;;11.73;70.44;100622.09;5021744;28;45523;-69
2022/12/20 00:04:06;;;;;;;;;11.00;11.00;;;;;11.70;70.44;100625.72;5020824;28;46373;-67
2022/12/20 00:06:35;;;;;;;;;9.75;9.50;;;;;11.68;70.81;100628.41;5019915;28;45528;-70
2022/12/20 00:12:22;;;;;;;;;9.00;9.00;;;;;11.52;70.64;100599.25;5018375;28;45380;-68
2022/12/20 00:14:48;;;;;;;;;12.00;12.00;;;;;11.66;70.98;100618.84;4983471;28;47267;-68
2022/12/20 00:17:13;;;;;;;;;9.50;9.50;;;;;11.65;71.01;100609.25;5018183;28;45379;-69
2022/12/20 00:19:39;;;;;;;;;11.00;11.00;;;;;11.55;70.48;100593.00;5018656;28;45262;-72
2022/12/20 00:22:04;;;;;;;;;10.75;10.00;;;;;11.63;70.74;100606.69;5018244;28;45262;-71
2022/12/20 00:24:29;;;;;;;;;10.00;10.00;;;;;11.62;70.68;100602.34;5018631;28;46349;-73
2022/12/20 00:26:55;;;;;;;;;11.00;11.00;;;;;11.65;71.04;100612.75;5019068;28;45264;-70
2022/12/20 00:29:20;;;;;;;;;10.00;10.00;;;;;11.65;70.74;100596.06;5017617;28;45307;-69
2022/12/20 00:31:45;;;;;;;;;8.50;8.50;;;;;11.64;70.56;100602.25;5018164;28;45240;-70
2022/12/20 00:34:11;;;;;;;;;10.00;10.00;;;;;11.58;71.09;100584.09;5017862;28;50656;-71
2022/12/20 00:36:38;;;;;;;;;8.50;8.50;;;;;11.61;71.15;100607.66;5019245;28;45151;-69
2022/12/20 00:39:03;;;;;;;;;10.75;10.75;;;;;11.54;70.77;100591.28;5017727;28;45381;-68
2022/12/20 00:41:31;;;;;;;;;10.00;10.00;;;;;11.52;71.19;100582.59;5017724;28;45586;-71
2022/12/20 00:43:57;;;;;;;;;10.25;10.25;;;;;11.54;71.17;100578.97;4999487;28;48781;-67
2022/12/20 00:46:23;;;;;;;;;7.75;7.75;;;;;11.52;71.17;100586.06;5017322;28;45428;-68
2022/12/20 00:48:50;;;;;;;;;8.00;8.00;;;;;11.50;71.41;100587.91;5017278;28;45230;-70
2022/12/20 00:51:18;;;;;;;;;10.00;10.00;;;;;11.49;71.52;100586.22;5017417;28;45434;-69
2022/12/20 00:53:44;;;;;;;;;8.25;8.25;;;;;11.43;71.08;100573.31;5017191;28;45303;-67
2022/12/20 00:56:10;;;;;;;;;8.50;8.50;;;;;11.50;71.66;100572.13;5016065;28;45374;-68
2022/12/20 00:58:38;;;;;;;;;7.75;7.75;;;;;11.44;71.06;100571.53;5017532;28;45304;-67
2022/12/20 01:01:05;;;;;;;;;7.50;7.50;;;;;11.52;71.50;100590.50;5017497;28;45307;-67
2022/12/20 01:03:31;;;;;;;;;11.00;11.00;;;;;11.49;71.33;100588.00;4998476;28;47819;-69
2022/12/20 01:06:01;;;;;;;;;11.00;11.00;;;;;11.45;71.08;100584.63;4998994;28;45910;-70
2022/12/20 01:08:29;;;;;;;;;8.00;8.00;;;;;11.50;70.94;100592.34;5015951;28;45494;-68
2022/12/20 01:11:07;;;;;;;;;10.25;10.25;;;;;11.51;71.15;100587.00;5017566;28;45259;-69
2022/12/20 01:13:34;;;;;;;;;10.00;10.00;;;;;11.49;71.02;100582.72;5017139;28;46423;-68
2022/12/20 01:16:08;;;;;;;;;8.25;8.25;;;;;11.53;71.18;100585.16;5016886;28;45391;-68
2022/12/20 01:18:34;;;;;;;;;9.00;9.00;;;;;11.53;71.54;100586.94;5017111;28;45475;-67
2022/12/20 01:21:05;;;;;;;;;11.00;11.00;;;;;11.53;71.31;100573.78;5018468;28;45534;-69
2022/12/20 01:23:31;;;;;;;;;9.25;9.25;;;;;11.53;71.44;100577.25;5017787;28;45371;-68
2022/12/20 01:26:01;;;;;;;;;10.00;10.00;;;;;11.54;71.15;100586.84;5016701;28;45221;-69
2022/12/20 01:28:27;;;;;;;;;11.00;11.00;;;;;11.54;71.11;100581.59;5017246;28;45384;-67
2022/12/20 01:30:52;;;;;;;;;10.25;10.25;;;;;11.48;71.09;100559.94;5000324;28;45301;-68
2022/12/20 01:33:18;;;;;;;;;8.75;8.75;;;;;11.57;71.02;100579.75;5020588;28;46369;-69
2022/12/20 01:36:04;;;;;;;;;9.50;9.50;;;;;11.54;71.26;100567.59;5026464;28;45241;-72
2022/12/20 01:38:31;;;;;;;;;9.50;9.50;;;;;11.49;71.01;100554.59;5018573;28;45236;-70
2022/12/20 01:40:57;;;;;;;;;9.50;9.50;;;;;11.55;71.20;100566.66;5016876;28;45499;-71
2022/12/20 01:43:25;;;;;;;;;9.25;9.25;;;;;11.54;71.03;100568.41;5016632;28;46261;-70
2022/12/20 01:45:51;;;;;;;;;8.50;8.50;;;;;11.54;71.25;100571.06;5015960;28;45978;-68
2022/12/20 01:48:23;;;;;;;;;7.25;7.25;;;;;11.34;71.27;100539.47;5019007;28;45411;-66
2022/12/20 01:50:49;;;;;;;;;9.00;9.00;;;;;11.53;71.18;100564.06;5018355;28;45440;-67
2022/12/20 01:53:19;;;;;;;;;9.50;9.50;;;;;11.53;71.51;100563.22;4999909;28;47130;-68
2022/12/20 01:55:46;;;;;;;;;15.00;14.00;;;;;11.49;71.26;100557.22;5018169;28;45236;-69
2022/12/20 01:58:15;;;;;;;;;8.75;8.75;;;;;11.55;71.33;100571.94;4998915;28;45423;-68
2022/12/20 02:00:41;;;;;;;;;8.75;8.75;;;;;11.49;71.71;100559.03;5016782;28;45332;-68
2022/12/20 02:03:10;;;;;;;;;10.25;10.25;;;;;11.57;71.18;100569.22;4998501;28;47014;-69
2022/12/20 02:05:41;;;;;;;;;10.00;10.00;;;;;11.57;71.04;100563.94;5016629;28;45308;-68
2022/12/20 02:08:09;;;;;;;;;10.50;10.50;;;;;11.57;71.21;100559.53;5017984;28;45424;-68
2022/12/20 02:11:01;;;;;;;;;9.50;9.50;;;;;11.55;71.05;100566.66;5016702;28;45246;-69
2022/12/20 02:13:50;;;;;;;;;10.00;10.00;;;;;11.53;71.08;100571.97;5015921;28;45465;-69
2022/12/20 02:16:23;;;;;;;;;9.50;9.50;;;;;11.53;71.44;100584.31;5015366;28;45191;-68
2022/12/20 02:19:27;;;;;;;;;9.00;9.00;;;;;11.47;70.87;100574.88;5016025;28;45302;-71
2022/12/20 02:22:14;;;;;;;;;10.50;10.50;;;;;11.51;71.41;100565.91;4961007;28;45701;-70
2022/12/20 02:25:19;;;;;;;;;9.00;9.00;;;;;11.50;71.21;100566.84;5014245;28;46135;-71
2022/12/20 02:28:07;;;;;;;;;8.00;8.00;;;;;11.47;71.11;100580.16;5015879;28;45242;-70
2022/12/20 02:30:38;;;;;;;;;8.00;8.00;;;;;11.42;71.19;100553.16;5015807;28;45292;-72
2022/12/20 02:33:07;;;;;;;;;8.25;8.25;;;;;11.49;71.03;100565.13;5015950;28;45318;-68
2022/12/20 02:35:36;;;;;;;;;8.50;8.50;;;;;11.48;71.32;100568.69;5015564;28;45273;-67
2022/12/20 02:38:24;;;;;;;;;9.00;9.00;;;;;11.49;71.24;100557.22;5015576;28;45254;-70
2022/12/20 02:40:53;;;;;;;;;8.50;8.50;;;;;11.48;70.79;100555.53;5015869;28;45402;-68
2022/12/20 02:46:09;;;;;;;;;9.00;9.00;;;;;11.45;70.54;100539.84;5015571;28;45412;-69
2022/12/20 02:48:36;;;;;;;;;9.00;9.00;;;;;11.43;70.73;100546.97;5017311;28;45326;-69
2022/12/20 02:51:05;;;;;;;;;4.75;4.75;;;;;11.40;70.73;100542.72;4998792;28;45276;-69
2022/12/20 02:53:31;;;;;;;;;7.75;7.75;;;;;11.38;71.05;100527.88;5016327;28;45391;-68
2022/12/20 02:56:04;;;;;;;;;9.50;9.50;;;;;11.31;71.22;100515.91;5016274;28;46290;-69
2022/12/20 02:58:37;;;;;;;;;7.00;7.00;;;;;11.34;70.81;100521.03;5015456;28;45333;-70
2022/12/20 03:01:13;;;;;;;;;8.00;8.00;;;;;11.19;70.82;100477.84;5015735;28;45266;-71
2022/12/20 03:03:39;;;;;;;;;8.00;8.00;;;;;11.30;70.90;100503.66;5015608;28;45470;-70
2022/12/20 03:06:05;;;;;;;;;6.50;6.50;;;;;11.30;70.68;100509.81;5016530;28;45789;-69
2022/12/20 03:08:31;;;;;;;;;9.25;9.25;;;;;11.23;71.07;100488.16;5016540;28;45447;-70
2022/12/20 03:10:56;;;;;;;;;9.00;9.00;;;;;11.04;71.08;100469.66;5015866;28;45443;-68
2022/12/20 03:13:23;;;;;;;;;7.00;7.00;;;;;11.23;70.95;100501.31;5015187;28;45629;-69
2022/12/20 03:15:49;;;;;;;;;7.00;7.00;;;;;11.21;70.70;100500.53;5015696;28;45317;-73
2022/12/20 03:18:14;;;;;;;;;8.00;8.00;;;;;11.18;70.76;100495.41;5015450;28;45252;-70
2022/12/20 03:20:40;;;;;;;;;8.25;8.25;;;;;11.16;70.77;100486.72;5015806;28;45500;-67
2022/12/20 03:23:06;;;;;;;;;7.00;7.00;;;;;11.18;71.09;100503.28;5015964;28;45464;-68
2022/12/20 03:25:31;;;;;;;;;7.50;7.50;;;;;11.16;71.12;100510.41;5015125;28;45447;-69
2022/12/20 03:27:57;;;;;;;;;7.00;7.00;;;;;11.14;70.78;100501.72;5012916;28;45316;-68
2022/12/20 03:30:22;;;;;;;;;6.00;6.00;;;;;11.10;71.17;100508.03;4997190;28;45281;-67
2022/12/20 03:32:47;;;;;;;;;7.00;7.00;;;;;11.11;71.01;100496.59;5015384;28;45554;-67
2022/12/20 03:35:13;;;;;;;;;6.50;6.50;;;;;11.03;70.75;100486.38;5014981;28;45245;-67
2022/12/20 03:37:38;;;;;;;;;6.00;6.00;;;;;11.12;71.34;100490.41;4997169;28;45501;-66
2022/12/20 03:40:04;;;;;;;;;7.25;7.25;;;;;11.10;70.74;100508.03;5015634;28;45821;-70
2022/12/20 03:42:30;;;;;;;;;7.00;7.00;;;;;11.10;70.91;100511.50;4998664;28;45483;-67
2022/12/20 03:44:56;;;;;;;;;5.25;5.25;;;;;11.04;70.57;100509.16;5014925;28;45387;-66
2022/12/20 03:47:21;;;;;;;;;9.50;9.50;;;;;11.09;71.12;100511.59;5015189;28;45304;-69
2022/12/20 03:49:46;;;;;;;;;7.25;7.25;;;;;11.10;70.68;100514.16;5014820;28;45467;-67
2022/12/20 03:52:12;;;;;;;;;6.25;6.25;;;;;11.13;70.50;100507.91;5015013;28;45308;-68
2022/12/20 03:54:38;;;;;;;;;6.50;6.50;;;;;11.09;70.73;100498.44;4998684;28;47334;-69
2022/12/20 03:57:04;;;;;;;;;6.25;6.25;;;;;11.14;70.89;100496.47;5014893;28;45223;-67
2022/12/20 03:59:29;;;;;;;;;6.00;6.00;;;;;11.15;71.19;100502.59;5014784;28;45179;-68
2022/12/20 04:01:54;;;;;;;;;7.00;7.00;;;;;11.15;70.86;100494.69;5014516;28;45516;-69
2022/12/20 04:04:20;;;;;;;;;8.75;7.50;;;;;11.14;70.89;100493.81;5014906;28;45939;-70
2022/12/20 04:06:45;;;;;;;;;6.00;6.00;;;;;11.11;70.49;100484.25;4998689;28;51713;-67
2022/12/20 04:09:11;;;;;;;;;7.00;7.00;;;;;11.15;70.51;100494.69;5014525;28;45378;-70
2022/12/20 04:11:38;;;;;;;;;7.00;7.00;;;;;11.14;70.65;100490.34;4996491;28;45641;-68
2022/12/20 04:14:03;;;;;;;;;8.75;8.75;;;;;11.11;70.58;100472.91;5012759;28;46229;-67
2022/12/20 04:16:29;;;;;;;;;6.00;6.00;;;;;11.13;70.64;100470.19;5014453;28;45428;-68
2022/12/20 04:18:54;;;;;;;;;6.25;6.25;;;;;11.15;70.89;100474.47;4996586;28;45337;-73
2022/12/20 04:21:29;;;;;;;;;5.00;5.00;;;;;11.11;70.99;100462.38;4997235;28;45352;-68
2022/12/20 04:23:54;;;;;;;;;5.75;5.75;;;;;11.15;70.18;100463.94;5014692;28;45316;-68
2022/12/20 04:26:20;;;;;;;;;7.00;7.00;;;;;11.12;70.52;100461.44;5015344;28;45344;-69
2022/12/20 04:28:46;;;;;;;;;10.00;9.00;;;;;11.07;70.33;100458.16;4980803;28;45481;-69
2022/12/20 04:31:11;;;;;;;;;6.25;6.25;;;;;11.10;70.38;100450.13;5014860;28;45306;-67
2022/12/20 04:33:37;;;;;;;;;5.00;5.00;;;;;11.09;70.36;100448.41;5017350;28;45471;-72
2022/12/20 04:36:02;;;;;;;;;6.50;6.50;;;;;11.14;70.73;100454.34;5018062;28;45350;-67
2022/12/20 04:38:28;;;;;;;;;5.75;5.75;;;;;11.15;70.49;100455.22;5015252;28;45341;-70
2022/12/20 04:40:54;;;;;;;;;6.00;6.00;;;;;11.16;70.69;100451.66;5016613;28;45256;-70
2022/12/20 04:43:20;;;;;;;;;5.50;5.50;;;;;11.10;70.83;100450.97;5017913;28;45453;-70
2022/12/20 04:45:51;;;;;;;;;5.75;5.75;;;;;11.16;70.31;100464.81;5018858;28;45344;-71
2022/12/20 04:48:16;;;;;;;;;6.00;6.00;;;;;11.11;70.52;100449.22;5019318;28;45419;-70
2022/12/20 04:50:42;;;;;;;;;6.75;6.75;;;;;11.18;70.15;100457.69;5018473;28;45412;-70
2022/12/20 04:55:54;;;;;;;;;6.00;6.00;;;;;11.21;70.63;100447.03;5017854;28;45336;-71
2022/12/20 04:58:20;;;;;;;;;5.00;5.00;;;;;11.17;70.09;100451.56;5018072;28;45249;-68
2022/12/20 05:00:45;;;;;;;;;6.00;6.00;;;;;11.22;70.10;100460.09;5018106;28;45514;-67
2022/12/20 05:03:10;;;;;;;;;7.00;7.00;;;;;11.23;70.38;100459.19;5019160;28;50399;-68
2022/12/20 05:05:35;;;;;;;;;5.00;5.00;;;;;11.22;70.00;100460.09;5021042;28;45313;-67
2022/12/20 05:08:01;;;;;;;;;6.25;6.25;;;;;11.21;69.82;100468.09;5022216;28;45214;-68
2022/12/20 05:10:26;;;;;;;;;6.25;6.25;;;;;11.20;69.99;100464.59;5020960;28;45237;-70
2022/12/20 05:12:52;;;;;;;;;6.00;6.00;;;;;11.21;69.77;100447.03;5022663;28;53507;-67
2022/12/20 05:15:17;;;;;;;;;5.00;5.00;;;;;11.22;70.08;100452.22;5002654;28;45347;-68
2022/12/20 05:17:42;;;;;;;;;5.00;5.00;;;;;11.18;69.72;100442.75;5017403;28;45280;-70
2022/12/20 05:20:08;;;;;;;;;6.00;6.00;;;;;11.24;70.17;100447.72;5017796;28;45356;-71
2022/12/20 05:28:02;;;;;;;;;6.00;6.00;;;;;11.30;70.08;100441.34;5017152;28;45223;-68
2022/12/20 05:30:27;;;;;;;;;4.50;4.50;;;;;11.30;70.00;100425.53;5017706;28;45527;-68
2022/12/20 05:32:52;;;;;;;;;5.50;5.50;;;;;11.30;70.28;100429.94;5017826;28;46075;-66
2022/12/20 05:35:18;;;;;;;;;5.50;5.50;;;;;11.34;69.83;100444.69;5019238;28;45226;-75
2022/12/20 05:37:44;;;;;;;;;4.00;4.00;;;;;11.35;69.49;100422.69;5017787;28;45372;-69
2022/12/20 05:40:10;;;;;;;;;4.75;4.75;;;;;11.36;69.88;100432.28;5016888;28;45329;-69
2022/12/20 05:42:36;;;;;;;;;6.00;6.00;;;;;11.36;69.74;100438.44;5016309;28;45747;-69
2022/12/20 05:45:02;;;;;;;;;5.00;5.00;;;;;11.36;69.45;100441.06;5017838;28;45360;-67
2022/12/20 05:47:29;;;;;;;;;4.50;4.50;;;;;11.37;69.96;100453.31;5001640;28;45386;-68
2022/12/20 05:49:55;;;;;;;;;5.75;5.75;;;;;11.37;69.92;100442.78;5017153;28;45552;-67
2022/12/20 05:52:20;;;;;;;;;5.50;5.50;;;;;11.39;69.63;100434.78;4998198;28;47224;-72
2022/12/20 05:54:45;;;;;;;;;4.00;4.00;;;;;11.39;69.36;100430.38;5016328;28;45280;-73
2022/12/20 05:57:11;;;;;;;;;4.75;4.75;;;;;11.40;69.74;100432.09;5016412;28;45237;-68
2022/12/20 05:59:36;;;;;;;;;4.75;4.75;;;;;11.44;69.30;100431.97;5017550;28;45227;-69
2022/12/20 06:02:02;;;;;;;;;4.25;4.25;;;;;11.44;69.86;100439.84;5016477;28;46139;-72
2022/12/20 06:04:27;;;;;;;;;4.50;4.50;;;;;11.41;69.62;100425.03;4998612;28;45444;-68
2022/12/20 06:06:52;;;;;;;;;6.50;6.50;;;;;11.40;69.69;100426.81;5016515;28;45246;-71
2022/12/20 06:09:18;;;;;;;;;5.00;5.00;;;;;11.41;69.68;100417.13;5016376;28;45316;-74
2022/12/20 06:11:43;;;;;;;;;3.25;3.25;;;;;11.41;69.71;100425.03;5016808;28;46535;-67
2022/12/20 06:14:09;;;;;;;;;8.00;8.00;;;;;11.48;69.74;100436.16;5016871;28;46916;-70
2022/12/20 06:16:35;;;;;;;;;4.00;4.00;;;;;11.50;69.56;100436.94;4998665;28;45331;-69
2022/12/20 06:19:01;;;;;;;;;5.00;5.00;;;;;11.52;69.66;100435.91;5016667;28;45387;-70
2022/12/20 06:21:27;;;;;;;;;5.50;5.50;;;;;11.52;69.50;100443.81;5016047;28;45429;-69
2022/12/20 06:23:53;;;;;;;;;5.00;5.00;;;;;11.54;69.04;100443.78;5015848;28;45321;-69
2022/12/20 06:26:19;;;;;;;;;5.00;5.00;;;;;11.55;69.36;100445.47;5016075;28;45205;-69
2022/12/20 06:28:44;;;;;;;;;6.00;6.00;;;;;11.57;69.47;100440.13;5016322;28;45365;-70
2022/12/20 06:31:10;;;;;;;;;6.25;6.25;;;;;11.57;69.51;100438.34;5015561;28;46254;-69
2022/12/20 06:33:36;;;;;;;;;5.00;5.00;;;;;11.58;69.45;100440.06;5015595;28;45230;-69
2022/12/20 06:36:02;;;;;;;;;4.75;4.75;;;;;11.60;69.41;100447.88;5015947;28;45341;-68
2022/12/20 06:38:28;;;;;;;;;4.25;4.25;;;;;11.62;69.55;100446.03;5016181;28;45218;-69
2022/12/20 06:40:53;;;;;;;;;4.00;4.00;;;;;11.63;69.62;100448.59;5015259;28;45429;-69
2022/12/20 06:43:19;;;;;;;;;5.75;5.75;;;;;11.63;69.47;100440.69;5015233;28;45332;-68
2022/12/20 06:45:44;;;;;;;;;5.50;5.50;;;;;11.64;69.48;100429.25;5015767;28;45294;-68
2022/12/20 06:48:10;;;;;;;;;5.25;5.25;;;;;11.66;69.44;100431.78;5015692;28;45269;-68
2022/12/20 06:50:37;;;;;;;;;4.00;4.00;;;;;11.60;68.88;100427.69;5014682;28;46157;-66
2022/12/20 06:53:03;;;;;;;;;10.00;10.00;;;;;11.65;69.73;100436.22;5015549;28;45442;-67
2022/12/20 06:55:28;;;;;;;;;5.00;5.00;;;;;11.68;69.44;100436.06;5015416;28;45722;-68
2022/12/20 06:57:55;;;;;;;;;5.25;5.25;;;;;11.69;68.79;100434.31;5015087;28;45341;-65
2022/12/20 07:00:21;;;;;;;;;6.00;6.00;;;;;11.70;68.97;100433.38;5014602;28;46974;-67
2022/12/20 07:02:46;;;;;;;;;7.50;7.50;;;;;11.69;69.46;100434.31;5013982;28;45230;-68
2022/12/20 07:05:11;;;;;;;;;7.00;7.00;;;;;11.67;69.49;100430.88;5015062;28;45327;-67
2022/12/20 07:07:37;;;;;;;;;6.00;6.00;;;;;11.73;69.24;100435.88;4997121;28;45544;-67
2022/12/20 07:10:02;;;;;;;;;7.75;7.50;;;;;11.74;69.69;100448.13;5015162;28;46799;-69
2022/12/20 07:12:28;;;;;;;;;6.00;6.00;;;;;11.76;69.41;100448.91;4997128;28;46427;-70
2022/12/20 07:14:53;;;;;;;;;7.00;7.00;;;;;11.75;69.83;100452.47;5014768;28;45693;-67
2022/12/20 07:17:19;;;;;;;;;8.00;8.00;;;;;11.65;69.29;100430.94;5015272;28;45226;-67
2022/12/20 07:19:44;;;;;;;;;8.00;8.00;;;;;11.75;69.38;100433.16;5015308;28;46436;-66
2022/12/20 07:22:10;;;;;;;;;5.25;5.25;;;;;11.79;69.60;100448.75;5020603;28;45438;-66
2022/12/20 07:24:35;;;;;;;;;4.50;4.50;;;;;11.82;69.62;100450.38;5021906;28;45399;-66
2022/12/20 07:27:01;;;;;;;;;7.00;7.00;;;;;11.81;69.67;100438.13;5016896;28;45508;-67
2022/12/20 07:29:27;;;;;;;;;5.75;5.75;;;;;11.82;69.48;100438.06;5019147;28;45477;-66
2022/12/20 07:31:52;;;;;;;;;5.50;5.50;;;;;11.81;69.44;100441.63;4999793;28;45376;-69
2022/12/20 07:34:18;;;;;;;;;8.25;8.25;;;;;11.82;69.23;100437.19;4997158;28;45417;-70
2022/12/20 07:36:43;;;;;;;;;14.00;14.00;;;;;11.82;69.07;100435.44;5015136;28;45626;-67
2022/12/20 07:39:08;;;;;;;;;5.75;5.75;;;;;11.80;69.54;100432.00;4996990;28;47165;-67
2022/12/20 07:41:34;;;;;;;;;7.00;7.00;;;;;11.83;69.44;100433.63;5015107;28;45287;-70
2022/12/20 07:43:59;;;;;;;;;4.00;4.00;;;;;11.83;69.45;100434.50;5014271;28;45159;-67
2022/12/20 07:46:25;;;;;;;;;8.25;8.25;;;;;11.85;69.07;100442.31;4995137;28;45573;-67
2022/12/20 07:48:51;;;;;;;;;6.25;6.25;;;;;11.76;69.06;100425.19;4996265;28;47249;-68
2022/12/20 07:51:31;;;;;;;;;4.25;4.25;;;;;11.87;69.10;100443.09;5014305;28;45397;-68
2022/12/20 07:54:13;;;;;;;;;7.00;7.00;;;;;11.90;69.12;100444.75;5014273;28;45277;-69
2022/12/20 07:56:44;;;;;;;;;9.00;9.00;;;;;11.80;69.25;100429.38;4997059;28;45321;-72
2022/12/20 07:59:15;;;;;;;;;10.50;9.50;;;;;11.85;69.01;100429.13;5014336;28;46671;-71
2022/12/20 08:01:44;;;;;;;;;5.00;5.00;;;;;11.93;69.03;100436.69;5013587;28;45436;-70
2022/12/20 08:04:17;;;;;;;;;13.50;13.50;;;;;11.95;68.63;100440.09;5014126;28;45283;-72
2022/12/20 08:06:42;;;;;;;;;6.00;5.50;;;;;11.93;68.87;100436.69;5014066;28;45357;-70
2022/12/20 08:09:13;;;;;;;;;8.75;8.75;;;;;11.93;69.00;100439.31;5013887;28;45344;-70
2022/12/20 08:11:39;;;;;;;;;7.00;7.00;;;;;11.94;68.87;100443.66;5013245;28;45441;-72
2022/12/20 08:14:07;;;;;;;;;5.25;5.25;;;;;11.95;68.69;100448.84;5016055;28;45320;-67
2022/12/20 08:16:32;;;;;;;;;5.75;5.75;;;;;11.94;68.81;100438.41;5000276;28;45500;-72
2022/12/20 08:18:57;;;;;;;;;6.50;6.50;;;;;11.94;68.47;100435.75;5020038;28;46379;-69
2022/12/20 08:21:23;;;;;;;;;8.00;8.00;;;;;11.91;68.45;100436.75;4999896;28;46074;-69
2022/12/20 08:23:48;;;;;;;;;7.75;7.75;;;;;11.93;68.64;100442.81;5017741;28;45214;-68
2022/12/20 08:26:14;;;;;;;;;7.00;7.00;;;;;11.91;68.55;100439.38;5018781;28;45232;-66
2022/12/20 08:28:39;;;;;;;;;8.00;8.00;;;;;11.95;68.59;100448.84;5017542;28;45185;-71
2022/12/20 08:31:07;;;;;;;;;9.00;9.00;;;;;11.84;68.67;100432.69;5017876;28;45439;-67
2022/12/20 08:33:34;;;;;;;;;8.00;8.00;;;;;11.95;68.71;100443.59;5018045;28;45429;-68
2022/12/20 08:36:01;;;;;;;;;7.00;7.00;;;;;11.97;68.64;100436.44;5017498;28;45660;-65
2022/12/20 08:38:30;;;;;;;;;6.25;6.25;;;;;11.94;68.42;100436.59;5017305;28;46622;-66
2022/12/20 08:41:09;;;;;;;;;7.00;7.00;;;;;11.98;68.24;100437.31;5017553;28;45267;-67
2022/12/20 08:43:34;;;;;;;;;6.75;6.75;;;;;11.95;68.34;100433.03;5017516;28;45370;-70
2022/12/20 08:46:00;;;;;;;;;7.00;7.00;;;;;11.96;68.31;100436.53;5017510;28;45510;-69
2022/12/20 08:48:26;;;;;;;;;6.25;6.25;;;;;11.95;68.01;100440.09;4999012;28;47628;-67
2022/12/20 08:50:56;;;;;;;;;9.50;9.50;;;;;11.99;68.35;100441.66;5016775;28;45452;-67
2022/12/20 08:53:22;;;;;;;;;8.25;8.25;;;;;11.98;68.30;100435.53;5016883;28;45361;-67
2022/12/20 08:55:47;;;;;;;;;9.75;9.75;;;;;12.01;67.95;100437.19;5017142;28;45372;-68
2022/12/20 08:58:14;;;;;;;;;10.50;10.50;;;;;12.02;67.92;100445.94;5016629;28;46352;-66
2022/12/20 09:00:40;;;;;;;;;6.00;6.00;;;;;12.01;67.65;100434.56;4998787;28;45465;-68
2022/12/20 09:03:06;;;;;;;;;8.00;8.00;;;;;12.03;68.08;100443.25;5017271;28;45453;-68
2022/12/20 09:05:32;;;;;;;;;5.00;5.00;;;;;12.03;67.80;100439.75;5018016;28;45795;-69
2022/12/20 09:07:57;;;;;;;;;6.25;6.25;;;;;12.05;67.83;100445.81;4999215;28;48413;-67
2022/12/20 09:10:22;;;;;;;;;5.50;5.50;;;;;11.99;67.87;100445.13;5016684;28;45580;-65
2022/12/20 09:12:48;;;;;;;;;6.25;6.25;;;;;11.85;67.79;100421.22;5016559;28;45396;-66
2022/12/20 09:15:13;;;;;;;;;5.00;5.00;;;;;12.03;68.33;100451.16;4998805;28;45591;-67
2022/12/20 09:17:39;;;;;;;;;4.75;4.00;;;;;12.04;68.30;100462.56;4998731;28;47908;-65
2022/12/20 09:20:05;;;;;;;;;6.00;6.00;;;;;12.07;68.54;100458.00;5016317;28;45309;-65
2022/12/20 09:22:30;;;;;;;;;6.50;6.50;;;;;12.06;68.79;100464.19;4998603;28;45378;-70
2022/12/20 09:24:55;;;;;;;;;8.00;8.00;;;;;12.02;68.86;100453.88;5016047;28;45442;-69
2022/12/20 09:27:21;;;;;;;;;6.00;6.00;;;;;12.04;69.18;100458.16;5016336;28;46006;-70
2022/12/20 09:29:47;;;;;;;;;5.00;5.00;;;;;11.98;69.50;100458.41;5016392;28;45246;-68
2022/12/20 09:32:12;;;;;;;;;6.50;6.50;;;;;12.02;69.85;100467.03;5016288;28;45240;-69
2022/12/20 09:34:38;;;;;;;;;8.00;8.00;;;;;12.02;69.90;100465.28;5016750;28;45288;-69
2022/12/20 09:37:03;;;;;;;;;9.00;9.00;;;;;12.01;70.59;100460.06;5016004;28;46151;-70
2022/12/20 09:39:29;;;;;;;;;8.00;8.00;;;;;12.02;70.36;100460.00;5016184;28;45358;-70
2022/12/20 09:41:54;;;;;;;;;7.00;7.00;;;;;11.99;70.95;100455.69;5016274;28;45399;-67
2022/12/20 09:44:30;;;;;;;;;8.50;8.25;;;;;11.99;71.27;100460.13;5016149;28;45337;-69
2022/12/20 09:47:03;;;;;;;;;7.00;7.00;;;;;11.97;71.58;100464.59;5016104;28;45440;-68
2022/12/20 09:49:34;;;;;;;;;7.00;7.00;;;;;11.94;71.48;100454.22;5016078;28;45501;-70
2022/12/20 09:52:12;;;;;;;;;7.00;7.00;;;;;11.91;71.71;100459.63;5017258;28;45338;-67
2022/12/20 09:55:06;;;;;;;;;7.75;7.75;;;;;11.86;72.24;100465.09;5017249;28;45238;-71
2022/12/20 09:57:53;;;;;;;;;11.00;11.00;;;;;11.84;72.89;100454.66;5015724;28;46594;-70
2022/12/20 10:00:20;;;;;;;;;5.75;5.75;;;;;11.69;73.63;100435.16;4998750;28;45309;-69
2022/12/20 10:02:47;;;;;;;;;7.50;7.50;;;;;11.74;74.02;100448.13;5016151;28;45349;-70
2022/12/20 10:05:16;;;;;;;;;7.75;7.75;;;;;11.71;74.25;100450.91;4982114;28;45424;-70
2022/12/20 10:07:48;;;;;;;;;6.25;6.25;;;;;11.66;74.52;100445.81;5015897;28;46181;-70
2022/12/20 10:10:33;;;;;;;;;8.00;8.00;;;;;11.66;74.77;100444.97;5015440;28;45199;-69
2022/12/20 10:13:07;;;;;;;;;5.75;5.75;;;;;11.65;75.18;100435.34;5015698;28;45380;-69
2022/12/20 10:15:40;;;;;;;;;6.00;6.00;;;;;11.63;76.00;100437.19;5016222;28;45440;-70
2022/12/20 10:18:23;;;;;;;;;6.50;6.50;;;;;11.64;76.11;100444.19;4997837;28;46284;-71
2022/12/20 10:21:04;;;;;;;;;7.00;7.00;;;;;11.62;76.34;100446.91;5015751;28;45363;-68
2022/12/20 10:23:39;;;;;;;;;6.00;6.00;;;;;11.62;76.24;100449.53;5015441;28;45155;-68
2022/12/20 10:26:09;;;;;;;;;5.25;5.25;;;;;11.62;76.77;100446.91;5015513;28;45380;-68
2022/12/20 10:28:36;;;;;;;;;8.50;8.00;;;;;11.62;76.67;100448.66;5015423;28;46013;-69
2022/12/20 10:31:11;;;;;;;;;9.00;9.00;;;;;11.60;76.72;100448.75;5016532;28;45352;-71
2022/12/20 10:33:36;;;;;;;;;10.25;10.25;;;;;11.58;77.22;100437.44;5017086;28;45479;-69
2022/12/20 10:36:31;;;;;;;;;8.50;8.50;;;;;11.62;77.07;100438.13;5014564;28;45466;-70
2022/12/20 10:39:06;;;;;;;;;8.25;8.25;;;;;11.64;77.26;100433.63;5015869;28;46398;-69
2022/12/20 10:41:50;;;;;;;;;9.50;9.50;;;;;11.62;77.26;100419.69;4999090;28;45277;-68
2022/12/20 10:44:24;;;;;;;;;11.50;11.50;;;;;11.65;77.43;100412.50;5015580;28;45282;-69
2022/12/20 10:46:52;;;;;;;;;14.25;14.25;;;;;11.67;77.30;100413.28;5015384;28;45459;-69
2022/12/20 10:49:39;;;;;;;;;7.50;7.50;;;;;11.69;77.24;100421.97;5015410;28;46131;-68
2022/12/20 10:52:08;;;;;;;;;9.00;9.00;;;;;11.68;77.66;100424.69;5015895;28;45227;-69
2022/12/20 10:54:36;;;;;;;;;10.00;10.00;;;;;11.59;77.71;100425.97;4997888;28;45379;-70
2022/12/20 10:57:23;;;;;;;;;8.00;8.00;;;;;11.61;77.21;100417.97;5015788;28;45340;-69
2022/12/20 10:59:59;;;;;;;;;9.00;9.00;;;;;11.63;77.54;100429.28;5014472;28;45513;-68
2022/12/20 11:02:28;;;;;;;;;10.25;10.25;;;;;11.63;77.26;100427.53;4997116;28;45286;-69
2022/12/20 11:05:20;;;;;;;;;9.25;9.25;;;;;11.64;77.97;100423.09;4998032;28;45363;-67
2022/12/20 11:07:54;;;;;;;;;19.25;19.25;;;;;11.67;77.61;100422.97;5015867;28;45306;-66
2022/12/20 11:10:28;;;;;;;;;10.50;10.00;;;;;11.68;77.81;100416.78;5014989;28;45946;-65
2022/12/20 11:13:00;;;;;;;;;11.00;11.00;;;;;11.69;78.06;100410.59;5015260;28;45404;-66
2022/12/20 11:15:29;;;;;;;;;8.75;8.75;;;;;11.68;77.76;100412.34;5015161;28;45432;-67
2022/12/20 11:18:16;;;;;;;;;13.50;13.50;;;;;11.70;77.97;100420.19;5015470;28;45422;-68
2022/12/20 11:20:49;;;;;;;;;15.25;15.25;;;;;11.69;77.68;100414.06;5015078;28;45362;-66
2022/12/20 11:23:17;;;;;;;;;20.25;19.00;;;;;11.71;78.37;100408.75;5015091;28;45166;-66
2022/12/20 11:26:07;;;;;;;;;13.25;13.25;;;;;11.71;78.17;100413.13;5015771;28;45285;-67
2022/12/20 11:29:01;;;;;;;;;13.50;13.50;;;;;11.71;78.19;100400.84;4997113;28;45560;-67
2022/12/20 11:31:35;;;;;;;;;8.75;8.75;;;;;11.71;78.07;100400.84;5015082;28;45445;-66
2022/12/20 11:34:15;;;;;;;;;9.00;9.00;;;;;11.68;77.65;100393.91;5014529;28;45372;-68
2022/12/20 11:37:02;;;;;;;;;19.75;19.75;;;;;11.69;77.89;100395.63;5014703;28;45222;-68
2022/12/20 11:39:44;;;;;;;;;10.00;10.00;;;;;11.67;77.49;100388.72;5014523;28;45791;-66
2022/12/20 11:42:44;;;;;;;;;13.25;13.25;;;;;11.68;76.97;100395.72;5014477;28;45456;-67
2022/12/20 11:45:26;;;;;;;;;8.75;8.75;;;;;11.63;77.29;100388.00;5003597;28;45430;-66